Time;durP1;ratioP1;P1;durP2;ratioP2;P2;SDS_P1;SDS_P2;PMS_P1;PMS_P2;Temp;Humidity;BMP_temperature;BMP_pressure;BME280_temperature;BME280_humidity;BME280_pressure;Samples;Min_cycle;Max_cycle;Signal;HPM_P1;HPM_P2
2022/10/16 00:01:26;;;;;;;7.93;2.53;;;13.10;99.90;;;;;;5028996;28;20033;-63
2022/10/16 00:03:52;;;;;;;5.78;2.30;;;13.00;99.90;;;;;;5003584;28;20136;-63
2022/10/16 00:06:20;;;;;;;7.03;2.33;;;13.00;99.90;;;;;;5010123;28;20042;-63
2022/10/16 00:08:46;;;;;;;7.07;2.20;;;13.00;99.90;;;;;;5013764;28;20041;-63
2022/10/16 00:11:24;;;;;;;9.30;2.38;;;13.00;99.90;;;;;;5025883;28;20026;-63
2022/10/16 00:13:54;;;;;;;6.55;2.33;;;13.00;99.90;;;;;;5013889;28;20045;-63
2022/10/16 00:16:20;;;;;;;6.03;2.05;;;13.00;99.90;;;;;;5012864;28;20052;-64
2022/10/16 00:18:46;;;;;;;7.07;2.60;;;13.00;99.90;;;;;;5004533;28;20041;-63
2022/10/16 00:21:15;;;;;;;8.30;2.15;;;13.00;99.90;;;;;;5001551;28;20084;-63
2022/10/16 00:23:41;;;;;;;4.70;2.17;;;13.00;99.90;;;;;;5029749;28;20073;-63
2022/10/16 00:26:11;;;;;;;10.48;2.53;;;12.90;99.90;;;;;;5015763;28;20374;-63
2022/10/16 00:28:38;;;;;;;6.68;2.20;;;12.90;99.90;;;;;;5021164;28;20034;-63
2022/10/16 00:31:08;;;;;;;6.78;2.30;;;12.90;99.90;;;;;;5019103;28;20092;-64
2022/10/16 00:33:35;;;;;;;8.55;2.30;;;12.90;99.90;;;;;;5008716;28;20076;-63
2022/10/16 00:36:02;;;;;;;8.98;2.30;;;12.90;99.90;;;;;;5025769;28;20137;-63
2022/10/16 00:38:28;;;;;;;6.63;2.20;;;12.90;99.90;;;;;;5021842;28;20046;-64
2022/10/16 00:40:53;;;;;;;7.78;2.20;;;12.90;99.90;;;;;;5022634;28;20041;-63
2022/10/16 00:43:44;;;;;;;5.57;2.28;;;12.80;99.90;;;;;;5022352;28;20037;-63
2022/10/16 00:46:25;;;;;;;8.13;2.30;;;12.80;99.90;;;;;;5030015;28;20083;-64
2022/10/16 00:49:03;;;;;;;11.68;2.50;;;12.80;99.90;;;;;;4993870;28;20076;-63
2022/10/16 00:51:41;;;;;;;5.75;2.60;;;12.80;99.90;;;;;;5016742;28;20045;-63
2022/10/16 00:54:23;;;;;;;5.65;2.10;;;12.80;99.90;;;;;;5000897;28;20045;-64
2022/10/16 00:56:49;;;;;;;5.35;1.88;;;12.80;99.90;;;;;;5016031;28;20042;-63
2022/10/16 00:59:19;;;;;;;7.55;2.38;;;12.70;99.90;;;;;;5005980;28;20367;-63
2022/10/16 01:01:45;;;;;;;5.05;2.30;;;12.70;99.90;;;;;;5009998;28;20049;-63
2022/10/16 01:04:10;;;;;;;4.32;2.22;;;12.70;99.90;;;;;;5025114;28;20055;-63
2022/10/16 01:06:47;;;;;;;7.97;2.25;;;12.70;99.90;;;;;;5018707;28;20048;-63
2022/10/16 01:09:27;;;;;;;8.55;2.13;;;12.70;99.90;;;;;;5014933;28;20040;-64
2022/10/16 01:12:14;;;;;;;5.97;1.92;;;12.70;99.90;;;;;;5011358;28;20367;-63
2022/10/16 01:14:45;;;;;;;7.38;2.25;;;12.70;99.90;;;;;;5024818;28;20216;-63
2022/10/16 01:17:19;;;;;;;7.93;2.08;;;12.70;99.90;;;;;;5019313;28;20041;-63
2022/10/16 01:20:01;;;;;;;5.13;1.88;;;12.80;99.90;;;;;;5011001;28;20393;-63
2022/10/16 01:22:38;;;;;;;8.97;2.70;;;12.80;99.90;;;;;;5029601;28;20045;-62
2022/10/16 01:25:09;;;;;;;5.30;2.45;;;12.80;99.90;;;;;;5026785;28;20300;-63
2022/10/16 01:27:39;;;;;;;7.78;2.45;;;12.80;99.90;;;;;;5023829;28;20436;-63
2022/10/16 01:30:13;;;;;;;7.97;2.50;;;12.80;99.90;;;;;;5019117;28;20026;-64
2022/10/16 01:32:57;;;;;;;4.63;2.20;;;12.80;99.90;;;;;;5019838;28;20072;-64
2022/10/16 01:35:37;;;;;;;7.53;2.15;;;12.70;99.90;;;;;;5022770;28;20050;-64
2022/10/16 01:38:12;;;;;;;7.57;2.05;;;12.70;99.90;;;;;;5026074;28;20464;-63
2022/10/16 01:40:42;;;;;;;5.53;2.30;;;12.70;99.90;;;;;;5025681;28;20122;-63
2022/10/16 01:43:16;;;;;;;4.50;2.13;;;12.70;99.90;;;;;;5016257;28;20312;-62
2022/10/16 01:45:44;;;;;;;6.00;2.35;;;12.70;99.90;;;;;;5014832;28;20042;-62
2022/10/16 01:48:13;;;;;;;6.10;2.47;;;12.70;99.90;;;;;;5018803;28;20414;-62
2022/10/16 01:50:42;;;;;;;9.23;2.20;;;12.80;99.90;;;;;;5029009;28;20502;-61
2022/10/16 01:53:12;;;;;;;7.22;2.42;;;12.80;99.90;;;;;;5018472;28;20379;-63
2022/10/16 01:55:44;;;;;;;6.93;2.40;;;12.80;99.90;;;;;;5020849;28;20441;-62
2022/10/16 01:58:12;;;;;;;6.70;2.63;;;12.80;99.90;;;;;;5005362;28;20410;-62
2022/10/16 02:00:41;;;;;;;8.88;2.50;;;12.80;99.90;;;;;;5020244;28;20045;-61
2022/10/16 02:03:08;;;;;;;9.13;2.55;;;12.80;99.90;;;;;;5039120;28;20128;-61
2022/10/16 02:05:45;;;;;;;6.88;2.33;;;12.80;99.90;;;;;;5024300;28;20045;-62
2022/10/16 02:08:12;;;;;;;9.00;2.40;;;12.80;99.90;;;;;;5009999;28;20037;-61
2022/10/16 02:10:38;;;;;;;7.38;2.80;;;12.80;99.90;;;;;;5029612;28;20044;-62
2022/10/16 02:13:16;;;;;;;6.35;2.60;;;12.80;99.90;;;;;;5017630;28;20064;-61
2022/10/16 02:15:42;;;;;;;8.15;2.85;;;12.80;99.90;;;;;;5015491;28;20528;-62
2022/10/16 02:18:09;;;;;;;8.70;2.80;;;12.80;99.90;;;;;;5010359;28;20061;-61
2022/10/16 02:20:48;;;;;;;8.32;3.00;;;12.80;99.90;;;;;;5010994;28;20052;-61
2022/10/16 02:23:19;;;;;;;8.05;2.80;;;12.80;99.90;;;;;;5023690;28;20041;-61
2022/10/16 02:25:47;;;;;;;7.93;2.78;;;12.80;99.90;;;;;;5033252;28;20398;-61
2022/10/16 02:28:26;;;;;;;8.40;2.88;;;12.80;99.90;;;;;;5032358;28;20480;-63
2022/10/16 02:30:56;;;;;;;8.55;2.85;;;12.80;99.90;;;;;;5021451;28;20045;-61
2022/10/16 02:33:23;;;;;;;5.15;2.53;;;12.80;99.90;;;;;;5021524;28;20128;-61
2022/10/16 02:35:50;;;;;;;6.20;3.30;;;12.80;99.90;;;;;;5033882;28;20045;-64
2022/10/16 02:38:18;;;;;;;6.00;2.53;;;12.80;99.90;;;;;;5020393;28;20077;-61
2022/10/16 02:40:44;;;;;;;7.15;2.70;;;12.80;99.90;;;;;;5030219;28;20084;-64
2022/10/16 02:43:11;;;;;;;8.18;3.13;;;12.80;99.90;;;;;;5031751;28;20516;-61
2022/10/16 02:45:36;;;;;;;8.48;2.63;;;12.80;99.90;;;;;;5022856;28;20487;-62
2022/10/16 02:48:02;;;;;;;8.60;2.95;;;12.80;99.90;;;;;;5012520;28;20130;-61
2022/10/16 02:50:28;;;;;;;10.02;2.85;;;12.80;99.90;;;;;;5027343;28;20030;-61
2022/10/16 02:52:54;;;;;;;4.88;2.35;;;12.80;99.90;;;;;;5013373;28;20042;-61
2022/10/16 02:55:19;;;;;;;6.45;2.75;;;12.90;99.90;;;;;;5023350;28;20096;-63
2022/10/16 02:57:45;;;;;;;6.65;2.35;;;12.90;99.90;;;;;;5023680;28;20037;-62
2022/10/16 03:00:14;;;;;;;6.25;2.42;;;12.90;99.90;;;;;;5023428;28;20041;-61
2022/10/16 03:02:40;;;;;;;6.03;2.60;;;12.90;99.90;;;;;;5029636;28;20041;-61
2022/10/16 03:05:06;;;;;;;4.95;2.45;;;12.90;99.90;;;;;;5027312;28;20164;-63
2022/10/16 03:07:31;;;;;;;6.10;2.55;;;12.90;99.90;;;;;;5007980;28;20052;-63
2022/10/16 03:09:59;;;;;;;6.45;2.25;;;12.90;99.90;;;;;;5007309;28;20033;-61
2022/10/16 03:12:26;;;;;;;7.22;2.50;;;13.00;99.90;;;;;;5031974;28;20073;-61
2022/10/16 03:14:52;;;;;;;6.88;2.65;;;13.00;99.90;;;;;;5029781;28;20056;-61
2022/10/16 03:17:18;;;;;;;5.25;2.70;;;13.00;99.90;;;;;;5023119;28;20410;-62
2022/10/16 03:19:44;;;;;;;5.53;2.30;;;13.00;99.90;;;;;;5009520;28;20042;-64
2022/10/16 03:22:09;;;;;;;4.85;2.67;;;13.00;99.90;;;;;;5020284;28;20043;-61
2022/10/16 03:24:35;;;;;;;8.63;2.67;;;13.00;99.90;;;;;;5012597;28;20537;-61
2022/10/16 03:27:00;;;;;;;5.40;2.55;;;13.00;99.90;;;;;;5028351;28;20044;-62
2022/10/16 03:29:27;;;;;;;5.05;2.28;;;13.00;99.90;;;;;;5018886;28;20034;-62
2022/10/16 03:31:53;;;;;;;4.32;2.35;;;13.00;99.90;;;;;;5015339;28;20405;-62
2022/10/16 03:34:18;;;;;;;4.32;2.55;;;13.00;99.90;;;;;;5015783;28;20045;-61
2022/10/16 03:36:44;;;;;;;6.10;2.70;;;13.00;99.90;;;;;;5030310;28;20037;-64
2022/10/16 03:39:10;;;;;;;6.18;2.70;;;13.10;99.90;;;;;;5022567;28;20033;-61
2022/10/16 03:41:35;;;;;;;6.35;2.90;;;13.10;99.90;;;;;;5030709;28;20053;-61
2022/10/16 03:44:01;;;;;;;6.22;2.70;;;13.00;99.90;;;;;;5021382;28;20073;-62
2022/10/16 03:46:27;;;;;;;3.72;2.50;;;13.00;99.90;;;;;;5018238;28;20398;-62
2022/10/16 03:48:52;;;;;;;8.10;2.70;;;13.00;99.90;;;;;;5010811;28;20116;-61
2022/10/16 03:51:18;;;;;;;4.40;2.83;;;13.00;99.90;;;;;;5027489;28;20041;-61
2022/10/16 03:53:43;;;;;;;6.28;3.28;;;13.00;99.90;;;;;;5023751;28;20073;-62
2022/10/16 03:56:09;;;;;;;6.22;3.08;;;13.00;99.90;;;;;;5024630;28;20076;-62
2022/10/16 03:58:35;;;;;;;6.05;2.85;;;13.00;99.90;;;;;;5029304;28;20033;-64
2022/10/16 04:01:00;;;;;;;4.40;2.75;;;12.90;99.90;;;;;;5023202;28;20042;-61
2022/10/16 04:03:26;;;;;;;6.72;2.95;;;12.90;99.90;;;;;;5022662;28;20034;-61
2022/10/16 04:05:51;;;;;;;6.35;3.22;;;12.90;99.90;;;;;;5012248;28;20036;-62
2022/10/16 04:08:18;;;;;;;6.95;3.20;;;12.80;99.90;;;;;;5029810;28;20389;-62
2022/10/16 04:10:43;;;;;;;6.50;3.03;;;12.80;99.90;;;;;;5023438;28;20095;-64
2022/10/16 04:13:09;;;;;;;5.97;3.17;;;12.80;99.90;;;;;;5006584;28;20042;-64
2022/10/16 04:15:35;;;;;;;6.70;3.20;;;12.70;99.90;;;;;;5024087;28;20033;-62
2022/10/16 04:18:00;;;;;;;9.70;3.38;;;12.70;99.90;;;;;;5009273;28;20076;-63
2022/10/16 04:20:26;;;;;;;6.78;3.13;;;12.70;99.90;;;;;;5011909;28;20041;-61
2022/10/16 04:22:52;;;;;;;8.43;3.20;;;12.70;99.90;;;;;;5021841;28;20034;-63
2022/10/16 04:25:17;;;;;;;5.60;3.38;;;12.70;99.90;;;;;;5025597;28;20112;-64
2022/10/16 04:27:43;;;;;;;8.98;3.70;;;12.70;99.90;;;;;;5022955;28;20037;-61
2022/10/16 04:30:09;;;;;;;8.48;3.88;;;12.70;99.90;;;;;;5029251;28;20025;-62
2022/10/16 04:32:34;;;;;;;5.65;3.47;;;12.70;99.90;;;;;;5016106;28;20073;-61
2022/10/16 04:35:00;;;;;;;5.97;3.10;;;12.70;99.90;;;;;;5009131;28;20128;-62
2022/10/16 04:37:27;;;;;;;5.32;3.28;;;12.70;99.90;;;;;;5026889;28;20394;-63
2022/10/16 04:39:53;;;;;;;5.95;3.10;;;12.70;99.90;;;;;;5020516;28;20041;-62
2022/10/16 04:42:19;;;;;;;11.18;3.63;;;12.70;99.90;;;;;;5021357;28;20042;-61
2022/10/16 04:44:45;;;;;;;6.82;3.58;;;12.70;99.90;;;;;;5020630;28;20040;-61
2022/10/16 04:47:11;;;;;;;6.80;3.67;;;12.70;99.90;;;;;;5028285;28;20033;-61
2022/10/16 04:49:39;;;;;;;5.35;3.60;;;12.70;99.90;;;;;;5021319;28;20061;-62
2022/10/16 04:52:05;;;;;;;7.53;3.50;;;12.70;99.90;;;;;;5029691;28;20025;-61
2022/10/16 04:54:31;;;;;;;7.45;3.45;;;12.70;99.90;;;;;;5026240;28;20022;-62
2022/10/16 04:56:56;;;;;;;7.47;3.70;;;12.70;99.90;;;;;;5025946;28;20556;-63
2022/10/16 04:59:23;;;;;;;8.77;3.63;;;12.60;99.90;;;;;;5023417;28;20025;-62
2022/10/16 05:01:49;;;;;;;10.40;3.67;;;12.70;99.90;;;;;;5020418;28;20041;-65
2022/10/16 05:04:15;;;;;;;7.03;3.67;;;12.60;99.90;;;;;;5000674;28;20125;-63
2022/10/16 05:06:41;;;;;;;8.55;3.60;;;12.70;99.90;;;;;;5010198;28;20130;-61
2022/10/16 05:09:07;;;;;;;6.53;3.80;;;12.70;99.90;;;;;;5022110;28;20033;-62
2022/10/16 05:11:34;;;;;;;7.15;3.22;;;12.70;99.90;;;;;;5025507;28;20041;-61
2022/10/16 05:13:59;;;;;;;5.57;3.50;;;12.70;99.90;;;;;;5025358;28;20045;-62
2022/10/16 05:16:25;;;;;;;9.40;3.65;;;12.70;99.90;;;;;;5016734;28;20049;-64
2022/10/16 05:18:53;;;;;;;4.57;3.17;;;12.70;99.90;;;;;;5024422;28;20037;-64
2022/10/16 05:21:20;;;;;;;4.43;2.95;;;12.60;99.90;;;;;;5030369;28;20048;-62
2022/10/16 05:23:45;;;;;;;5.47;3.20;;;12.60;99.90;;;;;;5019072;28;20037;-62
2022/10/16 05:26:11;;;;;;;6.28;3.20;;;12.60;99.90;;;;;;5024813;28;20045;-64
2022/10/16 05:28:37;;;;;;;6.10;3.50;;;12.60;99.90;;;;;;5016587;28;20029;-61
2022/10/16 05:31:07;;;;;;;7.65;3.63;;;12.60;99.90;;;;;;5017406;28;20087;-62
2022/10/16 05:33:32;;;;;;;6.43;3.20;;;12.60;99.90;;;;;;5011704;28;20072;-61
2022/10/16 05:36:07;;;;;;;4.60;3.13;;;12.50;99.90;;;;;;5027870;28;20497;-62
2022/10/16 05:38:33;;;;;;;5.80;3.33;;;12.60;99.90;;;;;;5025811;28;20048;-61
2022/10/16 05:40:59;;;;;;;10.27;3.97;;;12.60;99.90;;;;;;5012467;28;20392;-62
2022/10/16 05:43:26;;;;;;;5.75;3.33;;;12.60;99.90;;;;;;5029444;28;20397;-61
2022/10/16 05:46:02;;;;;;;7.13;3.10;;;12.50;99.90;;;;;;5021666;28;20038;-63
2022/10/16 05:48:28;;;;;;;6.78;3.60;;;12.50;99.90;;;;;;5022287;28;20144;-62
2022/10/16 05:51:03;;;;;;;7.40;3.22;;;12.50;99.90;;;;;;4998736;28;20037;-62
2022/10/16 05:53:31;;;;;;;7.13;3.28;;;12.50;99.90;;;;;;5020943;28;20073;-63
2022/10/16 05:55:57;;;;;;;6.72;3.30;;;12.50;99.90;;;;;;5007982;28;20508;-61
2022/10/16 05:58:27;;;;;;;6.13;3.33;;;12.50;99.90;;;;;;5028374;28;20029;-62
2022/10/16 06:00:58;;;;;;;7.43;3.08;;;12.50;99.90;;;;;;5022129;28;20042;-61
2022/10/16 06:03:25;;;;;;;347.95;19.48;;;12.50;99.90;;;;;;5025873;28;20052;-64
2022/10/16 06:05:51;;;;;;;21.80;3.95;;;12.50;99.90;;;;;;5024349;28;20042;-62
2022/10/16 06:08:18;;;;;;;7.88;3.13;;;12.50;99.90;;;;;;5022056;28;20065;-62
2022/10/16 06:10:44;;;;;;;7.85;2.90;;;12.50;99.90;;;;;;5018973;28;20128;-62
2022/10/16 06:13:11;;;;;;;8.73;2.90;;;12.50;99.90;;;;;;5017446;28;20084;-61
2022/10/16 06:15:38;;;;;;;5.85;2.70;;;12.50;99.90;;;;;;5017004;28;20045;-64
2022/10/16 06:18:05;;;;;;;8.07;3.15;;;12.50;99.90;;;;;;5000297;28;20485;-64
2022/10/16 06:20:30;;;;;;;4.93;2.90;;;12.50;99.90;;;;;;5020082;28;20045;-61
2022/10/16 06:22:57;;;;;;;6.60;2.90;;;12.50;99.90;;;;;;5013501;28;20103;-61
2022/10/16 06:25:22;;;;;;;4.80;2.58;;;12.50;99.90;;;;;;5020099;28;20033;-61
2022/10/16 06:27:48;;;;;;;6.88;2.70;;;12.50;99.90;;;;;;4997604;28;20045;-61
2022/10/16 06:30:14;;;;;;;9.40;2.78;;;12.60;99.90;;;;;;5014372;28;20041;-61
2022/10/16 06:32:39;;;;;;;6.10;2.65;;;12.60;99.90;;;;;;5028208;28;20041;-62
2022/10/16 06:35:05;;;;;;;8.38;2.90;;;12.60;99.90;;;;;;5029615;28;20033;-63
2022/10/16 06:37:31;;;;;;;4.97;2.55;;;12.60;99.90;;;;;;5023364;28;20034;-61
2022/10/16 06:39:56;;;;;;;7.18;2.65;;;12.60;99.90;;;;;;5010658;28;20045;-61
2022/10/16 06:42:22;;;;;;;4.07;2.45;;;12.60;99.90;;;;;;5003385;28;20045;-61
2022/10/16 06:44:47;;;;;;;6.10;2.90;;;12.60;99.90;;;;;;5028627;28;20493;-62
2022/10/16 06:47:13;;;;;;;6.47;2.65;;;12.60;99.90;;;;;;5003795;28;20038;-61
2022/10/16 06:49:39;;;;;;;8.98;4.32;;;12.60;99.90;;;;;;5027653;28;20033;-62
2022/10/16 06:52:04;;;;;;;11.30;5.00;;;12.60;99.90;;;;;;5021566;28;20513;-61
2022/10/16 06:54:30;;;;;;;5.78;2.45;;;12.70;99.90;;;;;;5021170;28;20116;-63
2022/10/16 06:56:56;;;;;;;5.72;2.60;;;12.80;99.90;;;;;;5025072;28;20029;-62
2022/10/16 06:59:22;;;;;;;5.78;2.40;;;12.70;99.90;;;;;;5026424;28;20052;-61
2022/10/16 07:01:47;;;;;;;5.28;2.50;;;12.80;99.90;;;;;;5025920;28;20029;-61
2022/10/16 07:04:13;;;;;;;6.55;2.45;;;12.80;99.90;;;;;;5025187;28;20045;-61
2022/10/16 07:06:39;;;;;;;6.95;2.20;;;12.90;99.90;;;;;;5027810;28;20034;-62
2022/10/16 07:09:07;;;;;;;6.07;2.30;;;12.90;99.90;;;;;;5010449;28;20124;-62
2022/10/16 07:11:34;;;;;;;6.97;2.92;;;12.90;99.90;;;;;;5022167;28;20120;-62
2022/10/16 07:13:59;;;;;;;5.70;2.70;;;12.90;99.90;;;;;;5020578;28;20051;-61
2022/10/16 07:16:27;;;;;;;3.90;2.35;;;13.00;99.90;;;;;;5025854;28;20464;-61
2022/10/16 07:18:58;;;;;;;8.82;2.63;;;13.00;99.90;;;;;;5015739;28;20045;-61
2022/10/16 07:21:25;;;;;;;7.78;2.28;;;13.00;99.90;;;;;;5027118;28;20037;-61
2022/10/16 07:23:52;;;;;;;5.28;2.50;;;13.10;99.90;;;;;;5016369;28;20121;-63
2022/10/16 07:26:18;;;;;;;5.65;2.33;;;13.20;99.90;;;;;;5003947;28;20038;-61
2022/10/16 07:28:44;;;;;;;6.80;2.38;;;13.20;99.90;;;;;;5023491;28;20053;-65
2022/10/16 07:31:14;;;;;;;6.25;2.33;;;13.20;99.90;;;;;;5032087;28;20056;-62
2022/10/16 07:33:42;;;;;;;7.05;2.25;;;13.30;99.90;;;;;;5032168;28;20091;-61
2022/10/16 07:36:08;;;;;;;7.13;2.10;;;13.30;99.90;;;;;;5009132;28;20050;-61
2022/10/16 07:38:34;;;;;;;4.80;1.98;;;13.30;99.90;;;;;;5032289;28;20046;-61
2022/10/16 07:41:02;;;;;;;6.93;1.80;;;13.40;99.90;;;;;;5020849;28;20045;-63
2022/10/16 07:43:29;;;;;;;8.07;1.90;;;13.40;99.90;;;;;;5005496;28;20038;-62
2022/10/16 07:45:55;;;;;;;5.15;2.05;;;13.40;99.90;;;;;;5015370;28;20062;-61
2022/10/16 07:48:22;;;;;;;4.40;1.58;;;13.50;99.90;;;;;;5020568;28;20517;-65
2022/10/16 07:50:47;;;;;;;5.32;1.60;;;13.50;99.90;;;;;;5020215;28;20419;-62
2022/10/16 07:53:13;;;;;;;8.65;1.80;;;13.50;99.90;;;;;;5027888;28;20038;-64
2022/10/16 07:55:39;;;;;;;4.25;1.20;;;13.50;99.90;;;;;;5021721;28;20026;-61
2022/10/16 07:58:05;;;;;;;5.60;1.35;;;13.50;99.90;;;;;;5012281;28;20508;-61
2022/10/16 08:00:31;;;;;;;5.47;1.30;;;13.60;99.90;;;;;;5021838;28;20068;-61
2022/10/16 08:03:01;;;;;;;3.90;1.20;;;13.80;99.90;;;;;;5031690;28;20073;-62
2022/10/16 08:05:27;;;;;;;2.25;1.05;;;13.60;99.90;;;;;;5008182;28;20052;-61
2022/10/16 08:07:53;;;;;;;6.88;1.40;;;13.70;99.90;;;;;;5003453;28;20045;-66
2022/10/16 08:10:21;;;;;;;3.35;1.40;;;13.70;99.90;;;;;;5009254;28;20044;-61
2022/10/16 08:12:46;;;;;;;2.83;1.40;;;13.70;99.90;;;;;;5012067;28;20056;-61
2022/10/16 08:15:12;;;;;;;5.78;1.60;;;13.80;99.90;;;;;;5020958;28;20053;-62
2022/10/16 08:17:38;;;;;;;4.88;1.73;;;13.80;99.90;;;;;;5006575;28;20026;-64
2022/10/16 08:20:04;;;;;;;4.57;2.15;;;13.80;99.90;;;;;;4997936;28;20232;-63
2022/10/16 08:22:30;;;;;;;7.43;2.50;;;13.90;99.90;;;;;;5012498;28;20049;-63
2022/10/16 08:24:55;;;;;;;5.80;2.20;;;13.90;99.90;;;;;;5018033;28;20035;-61
2022/10/16 08:27:21;;;;;;;8.18;2.70;;;13.90;99.90;;;;;;5025849;28;20044;-61
2022/10/16 08:29:48;;;;;;;5.20;2.47;;;14.00;99.90;;;;;;5020298;28;20477;-61
2022/10/16 08:32:14;;;;;;;6.90;2.70;;;14.00;99.90;;;;;;5024871;28;20033;-61
2022/10/16 08:34:40;;;;;;;6.35;2.90;;;13.90;99.90;;;;;;5007089;28;20636;-61
2022/10/16 08:37:07;;;;;;;6.75;3.00;;;14.00;99.90;;;;;;5028773;28;20136;-61
2022/10/16 08:39:32;;;;;;;5.63;2.47;;;13.90;99.90;;;;;;5018249;28;20038;-64
2022/10/16 08:42:19;;;;;;;11.10;5.65;;;13.90;99.90;;;;;;5026299;28;20083;-61
2022/10/16 08:44:51;;;;;;;5.32;2.90;;;13.90;99.90;;;;;;5027619;28;20120;-63
2022/10/16 08:47:24;;;;;;;8.35;3.17;;;13.90;99.90;;;;;;5022405;28;20037;-61
2022/10/16 08:50:01;;;;;;;4.95;2.35;;;13.90;99.90;;;;;;5010456;28;20042;-61
2022/10/16 08:52:35;;;;;;;7.97;2.50;;;13.90;99.90;;;;;;5011080;28;20311;-64
2022/10/16 08:55:01;;;;;;;9.15;2.45;;;13.90;99.90;;;;;;5023836;28;20052;-61
2022/10/16 08:57:27;;;;;;;6.90;2.38;;;13.90;99.90;;;;;;5010849;28;20056;-65
2022/10/16 08:59:59;;;;;;;6.05;2.13;;;13.90;99.90;;;;;;5023287;28;20046;-63
2022/10/16 09:02:36;;;;;;;6.83;2.43;;;13.90;99.90;;;;;;5022964;28;20038;-61
2022/10/16 09:05:44;;;;;;;6.18;2.45;;;14.00;99.90;;;;;;5008824;28;20306;-62
2022/10/16 09:08:40;;;;;;;5.43;2.13;;;14.00;99.90;;;;;;4976208;28;20071;-62
2022/10/16 09:11:21;;;;;;;5.30;2.45;;;14.00;99.90;;;;;;5012008;28;20110;-63
2022/10/16 09:14:02;;;;;;;7.38;2.30;;;14.10;99.90;;;;;;5009634;28;20110;-62
2022/10/16 09:16:32;;;;;;;6.63;2.03;;;14.10;99.90;;;;;;5005596;28;20041;-63
2022/10/16 09:19:22;;;;;;;5.40;2.13;;;14.10;99.90;;;;;;5026781;28;20045;-62
2022/10/16 09:21:48;;;;;;;7.88;1.98;;;14.20;99.90;;;;;;5028278;28;20092;-63
2022/10/16 09:24:19;;;;;;;14.60;8.70;;;14.30;99.90;;;;;;5020727;28;20069;-66
2022/10/16 09:26:46;;;;;;;12.65;2.63;;;14.30;99.90;;;;;;5028683;28;20112;-63
2022/10/16 09:29:19;;;;;;;7.07;1.90;;;14.40;99.90;;;;;;5021748;28;20087;-61
2022/10/16 09:31:46;;;;;;;6.68;2.03;;;14.40;99.90;;;;;;4988069;28;20496;-63
2022/10/16 09:34:34;;;;;;;7.65;2.03;;;14.50;99.90;;;;;;5025511;28;20053;-62
2022/10/16 09:37:03;;;;;;;10.40;2.17;;;14.50;99.90;;;;;;5010933;28;20414;-62
2022/10/16 09:39:29;;;;;;;12.93;2.45;;;14.60;99.90;;;;;;5021548;28;20124;-62
2022/10/16 09:41:56;;;;;;;12.73;2.20;;;14.60;99.90;;;;;;5010464;28;20178;-62
2022/10/16 09:44:21;;;;;;;9.35;2.00;;;14.70;99.90;;;;;;5017355;28;20508;-62
2022/10/16 09:46:47;;;;;;;7.80;2.10;;;14.70;99.90;;;;;;5023912;28;20120;-61
2022/10/16 09:49:23;;;;;;;7.10;1.83;;;14.80;99.90;;;;;;5029068;28;20501;-63
2022/10/16 09:51:49;;;;;;;8.00;2.17;;;14.80;99.90;;;;;;5019646;28;20109;-63
2022/10/16 09:54:17;;;;;;;8.55;2.13;;;14.80;99.90;;;;;;5016936;28;20041;-62
2022/10/16 09:56:45;;;;;;;13.95;2.38;;;14.90;99.90;;;;;;5023860;28;20425;-62
2022/10/16 09:59:17;;;;;;;11.82;2.53;;;14.90;99.90;;;;;;5014465;28;20526;-65
2022/10/16 10:01:48;;;;;;;12.50;2.30;;;15.00;99.90;;;;;;5017053;28;20167;-61
2022/10/16 10:04:14;;;;;;;8.35;2.08;;;15.10;99.90;;;;;;5018202;28;20114;-60
2022/10/16 10:06:54;;;;;;;12.38;2.47;;;15.10;99.90;;;;;;5000140;28;20636;-61
2022/10/16 10:09:24;;;;;;;6.63;2.00;;;15.20;99.90;;;;;;5021941;28;20244;-61
2022/10/16 10:11:52;;;;;;;22.02;2.53;;;15.30;99.90;;;;;;5013804;28;20053;-63
2022/10/16 10:14:36;;;;;;;14.43;2.50;;;15.40;99.90;;;;;;5011185;28;20058;-62
2022/10/16 10:17:04;;;;;;;14.85;2.33;;;15.50;99.90;;;;;;5008930;28;20121;-63
2022/10/16 10:19:36;;;;;;;15.10;2.28;;;15.50;99.90;;;;;;5026709;28;20132;-61
2022/10/16 10:22:13;;;;;;;;;;;15.50;99.90;;;;;;5028806;28;20045;-60
2022/10/16 10:24:38;;;;;;;12.25;2.30;;;15.60;99.90;;;;;;5025069;28;19957;-61
2022/10/16 10:27:15;;;;;;;12.23;2.15;;;15.70;99.90;;;;;;5015527;28;20473;-64
2022/10/16 10:29:59;;;;;;;14.35;2.38;;;15.80;99.90;;;;;;5017233;28;20120;-63
2022/10/16 10:32:49;;;;;;;7.95;2.38;;;15.90;99.90;;;;;;5028176;28;20084;-61
2022/10/16 10:35:21;;;;;;;12.10;2.40;;;15.90;99.90;;;;;;5011222;28;20112;-62
2022/10/16 10:38:24;;;;;;;13.68;2.70;;;15.90;99.90;;;;;;5016800;28;20047;-61
2022/10/16 10:41:14;;;;;;;12.20;2.35;;;16.00;99.90;;;;;;5002564;28;20053;-64
2022/10/16 10:44:03;;;;;;;15.77;2.88;;;16.00;99.90;;;;;;5004330;28;20042;-61
2022/10/16 10:46:41;;;;;;;10.52;2.30;;;16.10;99.90;;;;;;5027215;28;20045;-62
2022/10/16 10:49:20;;;;;;;12.43;2.78;;;16.10;99.90;;;;;;5027678;28;20088;-66
2022/10/16 10:52:19;;;;;;;9.10;1.90;;;16.20;99.90;;;;;;5010126;28;20069;-65
2022/10/16 10:55:00;;;;;;;9.88;2.25;;;16.20;99.90;;;;;;5028358;28;20124;-61
2022/10/16 10:57:29;;;;;;;6.88;1.77;;;16.30;99.90;;;;;;5030717;28;20040;-62
2022/10/16 10:59:55;;;;;;;9.18;1.90;;;16.40;99.90;;;;;;5026880;28;20038;-61
2022/10/16 11:02:33;;;;;;;12.50;2.45;;;16.50;99.90;;;;;;5010715;28;20100;-63
2022/10/16 11:05:24;;;;;;;11.20;2.80;;;16.50;99.90;;;;;;5021941;28;20547;-61
2022/10/16 11:07:59;;;;;;;10.90;2.42;;;16.70;99.90;;;;;;5020596;28;20053;-61
2022/10/16 11:10:37;;;;;;;12.30;2.45;;;16.70;99.90;;;;;;5019707;28;20125;-62
2022/10/16 11:13:21;;;;;;;12.95;2.08;;;16.70;99.90;;;;;;5023444;28;20046;-61
2022/10/16 11:15:50;;;;;;;8.40;2.10;;;16.60;99.90;;;;;;5020603;28;20059;-65
2022/10/16 11:18:24;;;;;;;10.98;3.03;;;16.60;99.90;;;;;;5013561;28;20045;-61
2022/10/16 11:21:12;;;;;;;10.40;2.72;;;16.60;99.90;;;;;;5022022;28;20045;-61
2022/10/16 11:23:46;;;;;;;10.82;2.55;;;16.60;99.90;;;;;;5025244;28;20045;-61
2022/10/16 11:26:19;;;;;;;9.95;1.98;;;16.60;99.90;;;;;;5021351;28;20083;-64
2022/10/16 11:28:54;;;;;;;10.02;2.00;;;16.70;99.90;;;;;;5028185;28;20049;-62
2022/10/16 11:31:39;;;;;;;10.48;2.30;;;16.80;99.90;;;;;;5007986;28;20052;-63
2022/10/16 11:34:22;;;;;;;12.18;2.28;;;16.80;99.90;;;;;;5012929;28;20045;-62
2022/10/16 11:36:58;;;;;;;11.57;2.00;;;16.80;99.90;;;;;;5011837;28;20099;-64
2022/10/16 11:39:31;;;;;;;14.63;3.08;;;16.90;99.90;;;;;;5028941;28;20425;-63
2022/10/16 11:42:13;;;;;;;9.50;2.28;;;17.00;99.90;;;;;;5013681;28;20041;-63
2022/10/16 11:45:00;;;;;;;;;;;16.90;99.90;;;;;;5013807;28;20056;-63
2022/10/16 11:47:34;;;;;;;13.60;2.78;;;16.90;99.90;;;;;;5030795;28;20369;-65
2022/10/16 11:50:23;;;;;;;10.95;2.28;;;16.80;99.90;;;;;;5008762;28;20156;-64
2022/10/16 11:53:12;;;;;;;9.68;2.10;;;16.80;99.90;;;;;;5021354;28;20080;-63
2022/10/16 11:55:44;;;;;;;11.32;1.90;;;16.80;99.90;;;;;;5026274;28;20034;-64
2022/10/16 11:58:32;;;;;;;10.57;2.50;;;16.80;99.90;;;;;;5026540;28;20037;-62
2022/10/16 12:01:16;;;;;;;9.27;1.70;;;16.60;99.90;;;;;;5018933;28;20519;-63
2022/10/16 12:04:02;;;;;;;9.13;2.17;;;16.60;99.90;;;;;;5028355;28;20054;-62
2022/10/16 12:06:37;;;;;;;9.82;2.08;;;16.60;99.90;;;;;;5006944;28;20041;-64
2022/10/16 12:09:03;;;;;;;10.65;2.25;;;16.50;99.90;;;;;;5009043;28;20665;-63
2022/10/16 12:11:28;;;;;;;11.75;2.33;;;16.40;99.90;;;;;;5027487;28;20622;-65
2022/10/16 12:14:17;;;;;;;14.50;2.30;;;16.40;99.90;;;;;;5024643;28;20144;-62
2022/10/16 12:16:56;;;;;;;11.80;2.20;;;16.40;99.90;;;;;;5024547;28;20072;-65
2022/10/16 12:19:24;;;;;;;14.95;3.13;;;16.30;99.90;;;;;;5007299;28;20034;-64
2022/10/16 12:21:52;;;;;;;11.05;2.30;;;16.30;99.90;;;;;;5006014;28;20131;-63
2022/10/16 12:24:36;;;;;;;6.68;1.80;;;16.40;99.90;;;;;;5026590;28;20046;-64
2022/10/16 12:27:04;;;;;;;13.05;2.10;;;16.40;99.90;;;;;;5020777;28;20863;-64
2022/10/16 12:29:44;;;;;;;15.75;2.58;;;16.30;99.90;;;;;;5027152;28;20520;-64
2022/10/16 12:32:52;;;;;;;11.82;2.53;;;16.20;99.90;;;;;;5022586;28;20445;-65
2022/10/16 12:35:28;;;;;;;13.18;3.00;;;16.20;99.90;;;;;;4943958;29;20102;-64
2022/10/16 12:38:03;;;;;;;9.32;2.17;;;16.20;99.90;;;;;;5015652;28;20076;-64
2022/10/16 12:40:32;;;;;;;6.32;1.75;;;16.20;99.90;;;;;;5011732;28;20125;-63
2022/10/16 12:42:58;;;;;;;9.65;2.30;;;16.30;99.90;;;;;;5023900;28;20041;-63
2022/10/16 12:45:34;;;;;;;9.30;1.88;;;16.40;99.90;;;;;;5022583;28;20091;-63
2022/10/16 12:48:02;;;;;;;10.25;2.10;;;16.50;99.90;;;;;;5029848;28;20048;-66
2022/10/16 12:50:40;;;;;;;10.55;2.28;;;16.50;99.90;;;;;;5025196;28;20073;-65
2022/10/16 12:53:21;;;;;;;13.82;2.10;;;16.60;99.90;;;;;;5025207;28;20050;-66
2022/10/16 12:56:09;;;;;;;8.70;2.22;;;16.60;99.90;;;;;;5021582;28;20468;-64
2022/10/16 12:58:37;;;;;;;8.60;2.60;;;16.70;99.90;;;;;;5020920;28;20033;-63
2022/10/16 13:01:41;;;;;;;8.70;2.30;;;16.80;99.90;;;;;;5026643;28;20508;-62
2022/10/16 13:04:17;;;;;;;12.00;2.10;;;16.90;99.90;;;;;;5000692;28;20046;-63